createdAt,value
2023-03-12T00:01:17.880Z,6.47
2023-03-12T00:03:47.843Z,3.88
2023-03-12T00:06:16.046Z,5.05
2023-03-12T00:08:44.740Z,3.13
2023-03-12T00:11:15.709Z,3.95
2023-03-12T00:13:44.458Z,3.83
2023-03-12T00:16:14.895Z,3.63
2023-03-12T00:18:44.418Z,4.05
2023-03-12T00:21:13.842Z,3.30
2023-03-12T00:23:42.043Z,2.95
2023-03-12T00:26:12.311Z,4.65
2023-03-12T00:28:41.326Z,4.07
2023-03-12T00:31:16.217Z,4.57
2023-03-12T00:33:44.892Z,3.22
2023-03-12T00:36:14.672Z,3.85
2023-03-12T00:38:42.992Z,4.53
2023-03-12T00:41:11.352Z,2.78
2023-03-12T00:43:39.471Z,2.55
2023-03-12T00:46:07.458Z,3.65
2023-03-12T00:48:35.608Z,4.95
2023-03-12T00:51:03.641Z,4.05
2023-03-12T00:53:33.060Z,6.50
2023-03-12T00:56:01.145Z,2.88
2023-03-12T00:58:29.226Z,3.63
2023-03-12T01:00:57.321Z,5.13
2023-03-12T01:03:25.423Z,3.60
2023-03-12T01:05:55.758Z,5.30
2023-03-12T01:08:24.754Z,6.78
2023-03-12T01:10:54.364Z,6.93
2023-03-12T01:13:22.789Z,5.97
2023-03-12T01:15:50.880Z,5.82
2023-03-12T01:18:18.958Z,6.80
2023-03-12T01:20:47.168Z,5.07
2023-03-12T01:23:15.143Z,5.30
2023-03-12T01:25:43.531Z,6.38
2023-03-12T01:28:12.920Z,7.50
2023-03-12T01:30:40.986Z,8.80
2023-03-12T01:33:09.046Z,8.00
2023-03-12T01:35:39.476Z,9.98
2023-03-12T01:38:07.935Z,6.93
2023-03-12T01:40:38.125Z,6.60
2023-03-12T01:43:29.797Z,5.38
2023-03-12T01:46:06.166Z,6.53
2023-03-12T01:48:40.970Z,8.65
2023-03-12T01:51:11.813Z,5.57
2023-03-12T01:53:43.858Z,5.25
2023-03-12T01:56:12.598Z,8.80
2023-03-12T01:58:46.353Z,5.13
2023-03-12T02:03:46.830Z,6.78
2023-03-12T02:06:17.439Z,5.90
2023-03-12T02:08:48.741Z,6.47
2023-03-12T02:11:16.680Z,7.80
2023-03-12T02:13:46.124Z,6.45
2023-03-12T02:16:14.824Z,7.55
2023-03-12T02:18:43.032Z,9.98
2023-03-12T02:21:17.423Z,9.65
2023-03-12T02:23:53.408Z,7.15
2023-03-12T02:26:24.389Z,7.43
2023-03-12T02:28:53.085Z,6.05
2023-03-12T02:31:25.158Z,6.20
2023-03-12T02:33:56.137Z,6.53
2023-03-12T02:36:24.177Z,7.05
2023-03-12T02:38:54.129Z,7.40
2023-03-12T02:41:28.512Z,5.65
2023-03-12T02:44:02.554Z,7.80
2023-03-12T02:46:33.417Z,5.90
2023-03-12T02:49:02.227Z,7.82
2023-03-12T02:51:30.259Z,6.57
2023-03-12T02:53:58.426Z,7.03
2023-03-12T02:56:29.621Z,6.65
2023-03-12T02:58:57.903Z,6.22
2023-03-12T03:01:26.187Z,9.52
2023-03-12T03:03:54.810Z,8.23
2023-03-12T03:06:23.061Z,8.25
2023-03-12T03:08:51.257Z,9.25
2023-03-12T03:11:19.656Z,8.35
2023-03-12T03:13:49.169Z,12.55
2023-03-12T03:16:18.018Z,10.65
2023-03-12T03:18:46.224Z,11.63
2023-03-12T03:21:16.711Z,12.55
2023-03-12T03:23:45.195Z,13.02
2023-03-12T03:26:13.585Z,9.23
2023-03-12T03:31:11.305Z,10.05
2023-03-12T03:33:40.902Z,9.20
2023-03-12T03:36:10.114Z,11.48
2023-03-12T03:38:38.272Z,9.77
2023-03-12T03:41:06.313Z,7.65
2023-03-12T03:43:34.652Z,10.52
2023-03-12T03:46:04.656Z,10.57
2023-03-12T03:48:34.563Z,10.57
2023-03-12T03:51:03.090Z,9.38
2023-03-12T03:53:31.895Z,10.82
2023-03-12T03:56:07.177Z,8.90
2023-03-12T03:58:35.282Z,8.10
2023-03-12T04:01:03.456Z,9.32
2023-03-12T04:03:31.693Z,9.85
2023-03-12T04:06:03.799Z,8.75
2023-03-12T04:08:33.037Z,10.98
2023-03-12T04:11:01.255Z,10.73
2023-03-12T04:13:29.388Z,10.98
2023-03-12T04:15:57.512Z,8.30
2023-03-12T04:18:25.667Z,10.75
2023-03-12T04:20:53.714Z,7.75
2023-03-12T04:23:23.276Z,7.72
2023-03-12T04:25:51.298Z,8.50
2023-03-12T04:28:19.373Z,11.63
2023-03-12T04:30:55.229Z,10.40
2023-03-12T04:33:23.464Z,10.63
2023-03-12T04:35:54.707Z,9.32
2023-03-12T04:38:25.715Z,9.88
2023-03-12T04:41:00.151Z,10.00
2023-03-12T04:43:29.558Z,9.13
2023-03-12T04:45:58.351Z,11.38
2023-03-12T04:48:26.781Z,10.40
2023-03-12T04:50:55.316Z,12.63
2023-03-12T04:53:25.187Z,12.88
2023-03-12T04:55:53.682Z,10.32
2023-03-12T04:58:23.455Z,10.70
2023-03-12T05:00:52.233Z,12.70
2023-03-12T05:03:20.283Z,9.48
2023-03-12T05:05:48.570Z,11.43
2023-03-12T05:08:16.614Z,10.20
2023-03-12T05:10:46.397Z,9.95
2023-03-12T05:13:15.756Z,11.48
2023-03-12T05:15:44.066Z,12.93
2023-03-12T05:18:12.253Z,45.72
2023-03-12T05:20:40.968Z,18.58
2023-03-12T05:23:09.883Z,13.18
2023-03-12T05:25:40.714Z,14.90
2023-03-12T05:28:10.622Z,9.88
2023-03-12T05:30:40.620Z,13.75
2023-03-12T05:33:08.790Z,10.98
2023-03-12T05:35:36.834Z,8.63
2023-03-12T05:38:04.993Z,10.68
2023-03-12T05:40:33.139Z,11.55
2023-03-12T05:43:01.500Z,10.80
2023-03-12T05:45:31.461Z,11.27
2023-03-12T05:47:59.724Z,8.32
2023-03-12T05:50:28.112Z,8.93
2023-03-12T05:52:56.180Z,11.90
2023-03-12T05:55:24.440Z,12.25
2023-03-12T05:57:52.410Z,10.98
2023-03-12T06:00:21.582Z,8.80
2023-03-12T06:02:51.899Z,10.13
2023-03-12T06:05:20.025Z,9.27
2023-03-12T06:07:48.117Z,12.57
2023-03-12T06:10:16.266Z,11.40
2023-03-12T06:12:44.370Z,9.45
2023-03-12T06:15:12.712Z,13.25
2023-03-12T06:17:40.706Z,11.55
2023-03-12T06:20:11.619Z,9.38
2023-03-12T06:22:42.753Z,9.50
2023-03-12T06:25:11.552Z,9.02
2023-03-12T06:27:39.747Z,8.02
2023-03-12T06:30:09.854Z,8.32
2023-03-12T06:32:38.149Z,12.20
2023-03-12T06:35:07.031Z,13.40
2023-03-12T06:37:36.803Z,21.88
2023-03-12T06:40:07.860Z,11.82
2023-03-12T06:42:35.785Z,10.23
2023-03-12T06:45:04.848Z,11.32
2023-03-12T06:47:33.221Z,10.38
2023-03-12T06:50:01.209Z,13.45
2023-03-12T06:52:29.221Z,9.75
2023-03-12T06:55:01.240Z,11.93
2023-03-12T06:57:29.229Z,9.82
2023-03-12T06:59:57.308Z,7.65
2023-03-12T07:02:25.467Z,10.48
2023-03-12T07:04:53.521Z,7.35
2023-03-12T07:07:21.610Z,8.40
2023-03-12T07:09:49.654Z,7.60
2023-03-12T07:12:19.053Z,8.68
2023-03-12T07:14:49.651Z,7.93
2023-03-12T07:17:17.773Z,7.50
2023-03-12T07:19:46.448Z,7.90
2023-03-12T07:22:15.710Z,9.10
2023-03-12T07:24:43.793Z,9.73
2023-03-12T07:27:12.089Z,8.40
2023-03-12T07:29:41.869Z,8.00
2023-03-12T07:32:10.194Z,7.50
2023-03-12T07:34:38.354Z,8.18
2023-03-12T07:37:06.795Z,6.53
2023-03-12T07:39:35.137Z,5.95
2023-03-12T07:42:03.346Z,7.13
2023-03-12T07:44:31.581Z,5.95
2023-03-12T07:47:12.836Z,6.30
2023-03-12T07:49:49.573Z,6.60
2023-03-12T07:52:18.400Z,4.50
2023-03-12T07:54:46.775Z,6.03
2023-03-12T07:57:15.041Z,4.03
2023-03-12T07:59:43.271Z,4.43
2023-03-12T08:02:12.886Z,6.45
2023-03-12T08:04:41.195Z,10.75
2023-03-12T08:07:09.522Z,4.82
2023-03-12T08:09:38.869Z,18.25
2023-03-12T08:12:07.604Z,4.32
2023-03-12T08:14:36.132Z,6.93
2023-03-12T08:17:04.209Z,4.68
2023-03-12T08:19:33.666Z,6.18
2023-03-12T08:22:02.054Z,37.80
2023-03-12T08:24:30.071Z,36.60
2023-03-12T08:26:58.290Z,30.33
2023-03-12T08:29:26.383Z,4.78
2023-03-12T08:32:04.560Z,3.67
2023-03-12T08:34:34.972Z,5.47
2023-03-12T08:37:04.007Z,8.18
2023-03-12T08:39:32.178Z,9.60
2023-03-12T08:42:00.360Z,10.63
2023-03-12T08:44:28.682Z,12.88
2023-03-12T08:46:56.798Z,5.15
2023-03-12T08:49:25.250Z,5.07
2023-03-12T08:51:54.794Z,5.90
2023-03-12T08:54:23.098Z,4.82
2023-03-12T08:56:52.291Z,7.50
2023-03-12T08:59:22.428Z,9.30
2023-03-12T09:01:51.079Z,14.88
2023-03-12T09:04:20.033Z,6.78
2023-03-12T09:06:48.246Z,8.30
2023-03-12T09:09:17.926Z,6.07
2023-03-12T09:11:46.051Z,5.78
2023-03-12T09:17:03.388Z,3.42
2023-03-12T09:19:31.561Z,4.30
2023-03-12T09:21:59.774Z,3.88
2023-03-12T09:24:29.334Z,3.90
2023-03-12T09:26:57.356Z,4.90
2023-03-12T09:29:25.457Z,4.63
2023-03-12T09:31:53.686Z,3.60
2023-03-12T09:34:21.809Z,4.30
2023-03-12T09:36:50.062Z,3.17
2023-03-12T09:39:18.064Z,3.47
2023-03-12T09:41:49.011Z,3.05
2023-03-12T09:44:22.058Z,4.85
2023-03-12T09:46:53.665Z,3.47
2023-03-12T09:49:31.960Z,3.00
2023-03-12T09:52:03.249Z,2.35
2023-03-12T09:54:37.944Z,2.50
2023-03-12T09:57:12.639Z,2.92
2023-03-12T09:59:40.749Z,3.75
2023-03-12T10:02:30.574Z,3.47
2023-03-12T10:05:03.817Z,2.88
2023-03-12T10:07:36.080Z,3.35
2023-03-12T10:10:30.979Z,2.97
2023-03-12T10:13:18.980Z,4.40
2023-03-12T10:16:03.043Z,6.03
2023-03-12T10:18:43.436Z,4.72
2023-03-12T10:21:21.543Z,2.90
2023-03-12T10:24:04.045Z,3.72
2023-03-12T10:26:38.272Z,2.75
2023-03-12T10:29:14.822Z,4.65
2023-03-12T10:31:52.965Z,3.38
2023-03-12T10:34:26.970Z,3.88
2023-03-12T10:37:00.440Z,3.70
2023-03-12T10:39:28.656Z,3.67
2023-03-12T10:41:57.947Z,3.67
2023-03-12T10:44:28.036Z,3.80
2023-03-12T10:47:06.778Z,3.00
2023-03-12T10:49:36.426Z,4.03
2023-03-12T10:52:11.531Z,4.97
2023-03-12T10:54:43.763Z,3.08
2023-03-12T10:57:12.927Z,5.95
2023-03-12T10:59:45.277Z,4.28
2023-03-12T11:02:40.995Z,4.22
2023-03-12T11:07:49.069Z,4.18
2023-03-12T11:10:23.508Z,3.65
2023-03-12T11:13:03.706Z,3.45
2023-03-12T11:15:40.903Z,3.05
2023-03-12T11:18:20.954Z,3.88
2023-03-12T11:20:50.242Z,4.65
2023-03-12T11:23:21.627Z,3.20
2023-03-12T11:25:54.860Z,5.43
2023-03-12T11:28:27.063Z,5.25
2023-03-12T11:30:59.533Z,3.67
2023-03-12T11:33:27.889Z,3.53
2023-03-12T11:36:09.201Z,3.05
2023-03-12T11:38:42.656Z,3.40
2023-03-12T11:41:25.960Z,4.30
2023-03-12T11:44:07.312Z,2.83
2023-03-12T11:46:50.577Z,3.63
2023-03-12T11:49:29.276Z,3.42
2023-03-12T11:52:05.082Z,2.45
2023-03-12T11:54:59.011Z,3.25
2023-03-12T11:57:36.356Z,3.15
2023-03-12T12:00:13.832Z,4.10
2023-03-12T12:02:58.727Z,2.95
2023-03-12T12:05:37.894Z,2.55
2023-03-12T12:08:28.532Z,2.88
2023-03-12T12:11:07.612Z,3.13
2023-03-12T12:13:45.017Z,2.63
2023-03-12T12:16:26.964Z,3.17
2023-03-12T12:19:08.948Z,3.63
2023-03-12T12:21:51.330Z,4.20
2023-03-12T12:24:35.993Z,3.38
2023-03-12T12:27:16.329Z,4.87
2023-03-12T12:30:10.021Z,8.18
2023-03-12T12:33:01.217Z,3.00
2023-03-12T12:35:36.349Z,2.75
2023-03-12T12:38:10.809Z,4.15
2023-03-12T12:40:42.639Z,7.80
2023-03-12T12:43:24.011Z,4.25
2023-03-12T12:45:54.659Z,3.58
2023-03-12T12:48:27.357Z,3.03
2023-03-12T12:50:59.696Z,5.10
2023-03-12T12:53:32.324Z,5.15
2023-03-12T12:56:14.165Z,2.97
2023-03-12T12:59:10.961Z,3.83
2023-03-12T13:01:39.983Z,3.35
2023-03-12T13:04:12.998Z,2.90
2023-03-12T13:06:59.165Z,3.95
2023-03-12T13:09:39.510Z,2.53
2023-03-12T13:12:16.899Z,2.70
2023-03-12T13:14:47.065Z,2.20
2023-03-12T13:17:34.737Z,2.63
2023-03-12T13:20:15.355Z,2.58
2023-03-12T13:22:59.588Z,4.88
2023-03-12T13:25:40.239Z,2.63
2023-03-12T13:28:44.892Z,5.07
2023-03-12T13:31:35.712Z,3.00
2023-03-12T13:34:34.398Z,2.20
2023-03-12T13:37:04.206Z,2.53
2023-03-12T13:39:36.448Z,2.75
2023-03-12T13:42:43.643Z,2.50
2023-03-12T13:45:26.822Z,2.17
2023-03-12T13:48:00.403Z,2.75
2023-03-12T13:50:29.545Z,2.88
2023-03-12T13:53:05.350Z,4.03
2023-03-12T13:55:36.318Z,2.67
2023-03-12T13:58:10.200Z,3.00
2023-03-12T14:00:42.925Z,2.92
2023-03-12T14:03:17.583Z,3.97
2023-03-12T14:05:51.664Z,10.45
2023-03-12T14:08:34.809Z,5.70
2023-03-12T14:11:22.723Z,3.00
2023-03-12T14:14:19.408Z,5.28
2023-03-12T14:16:49.537Z,2.75
2023-03-12T14:19:19.842Z,4.47
2023-03-12T14:21:49.976Z,3.55
2023-03-12T14:24:25.907Z,3.72
2023-03-12T14:26:56.322Z,3.88
2023-03-12T14:29:29.465Z,3.72
2023-03-12T14:32:00.565Z,4.35
2023-03-12T14:34:31.840Z,3.08
2023-03-12T14:37:05.896Z,3.75
2023-03-12T14:39:36.308Z,4.30
2023-03-12T14:42:08.041Z,3.13
2023-03-12T14:44:37.946Z,2.38
2023-03-12T14:47:10.208Z,3.47
2023-03-12T14:49:42.481Z,2.08
2023-03-12T14:52:13.311Z,3.05
2023-03-12T14:54:41.972Z,3.50
2023-03-12T14:57:20.802Z,4.22
2023-03-12T14:59:53.978Z,5.97
2023-03-12T15:02:23.332Z,2.83
2023-03-12T15:04:55.360Z,3.15
2023-03-12T15:07:28.381Z,3.05
2023-03-12T15:09:56.738Z,4.55
2023-03-12T15:12:28.191Z,3.13
2023-03-12T15:15:02.700Z,3.10
2023-03-12T15:17:32.732Z,12.25
2023-03-12T15:20:03.079Z,4.38
2023-03-12T15:22:31.303Z,29.77
2023-03-12T15:25:03.672Z,9.90
2023-03-12T15:27:35.091Z,19.45
2023-03-12T15:30:03.268Z,15.88
2023-03-12T15:32:32.097Z,20.85
2023-03-12T15:35:00.947Z,37.38
2023-03-12T15:37:38.026Z,4.47
2023-03-12T15:40:10.856Z,18.55
2023-03-12T15:42:44.851Z,25.05
2023-03-12T15:45:20.790Z,16.23
2023-03-12T15:47:49.923Z,14.55
2023-03-12T15:50:22.058Z,18.88
2023-03-12T15:53:01.677Z,15.85
2023-03-12T15:55:31.090Z,8.10
2023-03-12T15:58:01.891Z,11.38
2023-03-12T16:00:31.107Z,9.05
2023-03-12T16:03:00.921Z,5.88
2023-03-12T16:05:33.313Z,6.25
2023-03-12T16:08:03.235Z,4.60
2023-03-12T16:10:36.301Z,4.57
2023-03-12T16:13:07.034Z,5.60
2023-03-12T16:15:38.656Z,6.40
2023-03-12T16:18:12.666Z,7.57
2023-03-12T16:20:40.781Z,6.65
2023-03-12T16:23:08.891Z,3.90
2023-03-12T16:25:37.616Z,3.88
2023-03-12T16:28:08.602Z,7.35
2023-03-12T16:30:37.950Z,8.20
2023-03-12T16:33:09.081Z,9.88
2023-03-12T16:35:37.597Z,4.88
2023-03-12T16:38:05.810Z,6.20
2023-03-12T16:40:36.985Z,7.68
2023-03-12T16:43:09.049Z,10.38
2023-03-12T16:45:38.105Z,8.90
2023-03-12T16:48:07.689Z,8.88
2023-03-12T16:50:35.844Z,9.32
2023-03-12T16:53:05.211Z,8.57
2023-03-12T16:55:46.052Z,6.63
2023-03-12T16:58:17.583Z,6.72
2023-03-12T17:00:46.744Z,6.97
2023-03-12T17:03:20.945Z,8.70
2023-03-12T17:05:49.003Z,38.25
2023-03-12T17:08:17.291Z,34.65
2023-03-12T17:10:48.548Z,38.03
2023-03-12T17:13:22.205Z,28.80
2023-03-12T17:15:50.816Z,26.23
2023-03-12T17:18:19.371Z,30.25
2023-03-12T17:20:48.010Z,29.33
2023-03-12T17:23:16.514Z,31.13
2023-03-12T17:25:45.461Z,29.85
2023-03-12T17:28:15.452Z,30.77
2023-03-12T17:30:45.301Z,31.75
2023-03-12T17:33:15.281Z,40.40
2023-03-12T17:35:44.357Z,102.97
2023-03-12T17:38:14.102Z,42.78
2023-03-12T17:40:42.587Z,26.95
2023-03-12T17:43:11.138Z,14.65
2023-03-12T17:45:39.270Z,13.63
2023-03-12T17:48:08.913Z,13.88
2023-03-12T17:50:37.900Z,19.98
2023-03-12T17:53:06.151Z,13.35
2023-03-12T17:55:34.258Z,16.15
2023-03-12T17:58:03.450Z,18.15
2023-03-12T18:00:31.632Z,14.30
2023-03-12T18:02:59.824Z,9.30
2023-03-12T18:05:29.534Z,13.25
2023-03-12T18:07:57.888Z,22.50
2023-03-12T18:10:26.054Z,33.15
2023-03-12T18:12:55.745Z,15.95
2023-03-12T18:15:23.893Z,13.65
2023-03-12T18:17:56.620Z,11.40
2023-03-12T18:20:37.471Z,8.32
2023-03-12T18:23:08.320Z,12.65
2023-03-12T18:25:37.947Z,17.45
2023-03-12T18:28:06.403Z,16.02
2023-03-12T18:30:34.957Z,17.75
2023-03-12T18:33:03.097Z,15.70
2023-03-12T18:35:31.235Z,17.23
2023-03-12T18:37:59.608Z,24.55
2023-03-12T18:40:32.903Z,19.83
2023-03-12T18:43:01.566Z,20.30
2023-03-12T18:45:30.268Z,16.52
2023-03-12T18:47:58.392Z,14.40
2023-03-12T18:50:26.698Z,25.33
2023-03-12T18:52:54.815Z,27.00
2023-03-12T18:55:23.072Z,34.70
2023-03-12T18:57:52.579Z,23.40
2023-03-12T19:00:21.424Z,25.50
2023-03-12T19:02:49.671Z,27.45
2023-03-12T19:05:18.077Z,28.60
2023-03-12T19:07:46.503Z,41.47
2023-03-12T19:10:15.431Z,55.40
2023-03-12T19:12:52.845Z,40.65
2023-03-12T19:15:25.184Z,28.00
2023-03-12T19:17:54.291Z,21.25
2023-03-12T19:20:22.681Z,41.20
2023-03-12T19:22:50.839Z,34.22
2023-03-12T19:25:20.105Z,21.52
2023-03-12T19:27:48.359Z,18.73
2023-03-12T19:30:17.000Z,25.42
2023-03-12T19:32:46.531Z,46.28
2023-03-12T19:35:15.720Z,51.70
2023-03-12T19:37:43.991Z,57.83
2023-03-12T19:40:13.426Z,80.25
2023-03-12T19:42:41.728Z,83.47
2023-03-12T19:45:11.145Z,91.88
2023-03-12T19:47:39.294Z,95.57
2023-03-12T19:50:10.630Z,105.10
2023-03-12T19:52:38.917Z,88.50
2023-03-12T19:55:07.572Z,50.55
2023-03-12T19:57:36.534Z,28.67
2023-03-12T20:00:08.096Z,31.40
2023-03-12T20:02:36.594Z,26.13
2023-03-12T20:05:05.304Z,25.40
2023-03-12T20:07:34.952Z,24.45
2023-03-12T20:10:03.133Z,25.60
2023-03-12T20:12:31.305Z,27.02
2023-03-12T20:14:59.726Z,26.05
2023-03-12T20:17:27.866Z,24.95
2023-03-12T20:19:56.337Z,21.55
2023-03-12T20:22:26.254Z,20.52
2023-03-12T20:24:55.925Z,17.08
2023-03-12T20:27:24.139Z,20.70
2023-03-12T20:29:52.198Z,21.15
2023-03-12T20:32:20.623Z,23.90
2023-03-12T20:34:48.871Z,19.77
2023-03-12T20:37:18.162Z,20.85
2023-03-12T20:39:46.338Z,20.15
2023-03-12T20:42:15.917Z,22.17
2023-03-12T20:44:44.100Z,23.20
2023-03-12T20:47:12.237Z,28.13
2023-03-12T20:49:40.399Z,27.48
2023-03-12T20:52:08.613Z,24.73
2023-03-12T20:54:36.903Z,22.48
2023-03-12T20:57:05.105Z,18.60
2023-03-12T20:59:34.654Z,12.68
2023-03-12T21:02:02.744Z,12.15
2023-03-12T21:04:30.986Z,12.40
2023-03-12T21:06:59.144Z,10.52
2023-03-12T21:09:27.387Z,13.65
2023-03-12T21:11:56.139Z,9.18
2023-03-12T21:14:24.494Z,19.75
2023-03-12T21:16:54.297Z,38.13
2023-03-12T21:19:22.430Z,24.58
2023-03-12T21:21:50.595Z,27.83
2023-03-12T21:24:18.830Z,20.95
2023-03-12T21:26:46.903Z,22.65
2023-03-12T21:29:15.310Z,28.05
2023-03-12T21:31:43.574Z,24.38
2023-03-12T21:34:13.085Z,26.33
2023-03-12T21:36:41.245Z,26.05
2023-03-12T21:39:09.388Z,19.77
2023-03-12T21:41:37.853Z,18.25
2023-03-12T21:44:06.129Z,17.98
2023-03-12T21:46:35.980Z,14.77
2023-03-12T21:49:04.821Z,20.90
2023-03-12T21:51:34.441Z,17.70
2023-03-12T21:54:02.797Z,17.88
2023-03-12T21:56:32.139Z,26.83
2023-03-12T21:59:00.245Z,21.35
2023-03-12T22:01:28.817Z,24.40
2023-03-12T22:03:57.164Z,23.08
2023-03-12T22:06:25.455Z,24.27
2023-03-12T22:08:56.057Z,13.43
2023-03-12T22:11:24.187Z,17.35
2023-03-12T22:13:52.305Z,21.98
2023-03-12T22:16:22.068Z,21.85
2023-03-12T22:18:50.223Z,25.30
2023-03-12T22:21:20.257Z,24.55
2023-03-12T22:23:51.189Z,24.45
2023-03-12T22:26:22.481Z,37.00
2023-03-12T22:28:51.604Z,43.15
2023-03-12T22:31:21.159Z,31.48
2023-03-12T22:33:49.802Z,33.97
2023-03-12T22:36:18.869Z,31.17
2023-03-12T22:38:48.397Z,24.15
2023-03-12T22:41:19.291Z,27.42
2023-03-12T22:43:50.309Z,22.73
2023-03-12T22:46:20.114Z,26.15
2023-03-12T22:48:52.668Z,25.50
2023-03-12T22:51:20.910Z,24.00
2023-03-12T22:53:48.996Z,23.98
2023-03-12T22:56:17.479Z,24.42
2023-03-12T22:58:45.776Z,24.85
2023-03-12T23:01:17.920Z,26.67
2023-03-12T23:03:47.359Z,25.55
2023-03-12T23:06:16.653Z,22.20
2023-03-12T23:08:47.517Z,27.25
2023-03-12T23:11:16.016Z,26.30
2023-03-12T23:13:45.978Z,29.20
2023-03-12T23:16:18.178Z,28.48
2023-03-12T23:18:46.798Z,28.77
2023-03-12T23:21:17.114Z,31.88
2023-03-12T23:23:45.399Z,31.00
2023-03-12T23:26:16.467Z,26.52
2023-03-12T23:28:46.920Z,28.88
2023-03-12T23:31:17.367Z,37.10
2023-03-12T23:33:46.017Z,52.78
2023-03-12T23:36:15.722Z,52.35
2023-03-12T23:38:44.712Z,60.25
2023-03-12T23:41:14.625Z,45.55
2023-03-12T23:43:43.596Z,47.33
2023-03-12T23:46:13.235Z,39.45
2023-03-12T23:48:42.953Z,33.55
2023-03-12T23:51:13.054Z,35.00
2023-03-12T23:53:42.797Z,31.20
2023-03-12T23:56:13.300Z,31.85
2023-03-12T23:58:41.627Z,28.35
